Aqualoyalty — A8ZC6 — position and weather

sailwx.info

Track history (hours):
 
Tides and Currents Weather Stations Pressure Air Temp Water Temp Dewpoint Dewpoint Depression Visibility Wind Speed Wind Dir Waves Ship Positions

Aqualoyalty

Last reported at 2016-Feb-14 07:34 UTC. Time now 2016-Feb-14 08:07 UTC.
Position N 33°42' W 118°33'.

Length 249 m; draft 8.3 m.

Type: Ship. MMSI: 636015177.

Date/timePositionNaut miles runAvg speedWind from/ knotsBaromVisibWave heightAir tempDewpointWater temp
2016-Feb-14 07:34N 33°42' W 118°33'8 7.8
2016-Feb-14 06:34N 33°49' W 118°32'6 5.7
2016-Feb-14 05:31N 33°54' W 118°27'0 0.1
2016-Feb-14 04:31N 33°54' W 118°27'0 0.0
2016-Feb-14 03:31N 33°54' W 118°27'0 0.0
2016-Feb-14 02:31N 33°54' W 118°27'0 0.0
2016-Feb-14 01:31N 33°54' W 118°27'0 0.0
2016-Feb-14 00:31N 33°54' W 118°27'0 0.0
2016-Feb-13 23:28N 33°54' W 118°27'0 0.1
2016-Feb-13 22:31N 33°54' W 118°27'0 0.0
2016-Feb-13 21:31N 33°54' W 118°27'0 0.0
2016-Feb-13 18:28N 33°54' W 118°27'0 0.1
2016-Feb-13 17:31N 33°54' W 118°27'0 0.1
2016-Feb-13 16:31N 33°54' W 118°27'0 0.0
2016-Feb-13 15:31N 33°54' W 118°27'0 0.0
2016-Feb-13 14:25N 33°54' W 118°27'0 0.0
2016-Feb-13 13:31N 33°54' W 118°27'0 0.0
2016-Feb-13 11:25N 33°54' W 118°27'0 0.0
2016-Feb-13 10:31N 33°54' W 118°27'0 0.1
2016-Feb-13 09:31N 33°54' W 118°27'0 0.0
2016-Feb-13 08:31N 33°54' W 118°27'0 0.0
2016-Feb-13 07:28N 33°54' W 118°27'0 0.0
2016-Feb-13 05:28N 33°54' W 118°27'0 0.1
2016-Feb-13 04:31N 33°54' W 118°27'0 0.0
2016-Feb-13 03:25N 33°54' W 118°27'0 0.0
2016-Feb-12 23:07N 33°54' W 118°27'0 0.1
2016-Feb-12 22:31N 33°54' W 118°27'0 0.0
2016-Feb-12 21:31N 33°54' W 118°27'0 0.0
2016-Feb-12 20:22N 33°54' W 118°27'0 0.1
2016-Feb-12 19:25N 33°54' W 118°27'0 0.0
2016-Feb-12 18:31N 33°54' W 118°27'0 0.1
2016-Feb-12 17:31N 33°54' W 118°27'0 0.2
2016-Feb-12 16:33N 33°54' W 118°27'3 2.7
2016-Feb-12 15:33N 33°53' W 118°30'3 2.0
2016-Feb-12 14:10N 33°50' W 118°30'4 6.5
2016-Feb-12 13:33N 33°46' W 118°30'9 9.1
2016-Feb-12 12:33N 33°39' W 118°23'9 8.9
2016-Feb-12 11:33N 33°38' W 118°12'5 4.6
2016-Feb-12 10:31N 33°40' W 118°07'0 0.1
2016-Feb-12 09:31N 33°40' W 118°07'0 0.1
2016-Feb-12 08:31N 33°40' W 118°07'0 0.1
2016-Feb-12 07:31N 33°40' W 118°07'0 0.0
2016-Feb-12 06:31N 33°40' W 118°07'0 0.0
2016-Feb-12 05:31N 33°40' W 118°07'0 0.0
2016-Feb-12 02:07N 33°40' W 118°07'0 0.0
2016-Feb-12 01:31N 33°40' W 118°07'0 0.0
2016-Feb-12 00:31N 33°40' W 118°07'0 0.0
2016-Feb-11 23:19N 33°40' W 118°07'0 0.1
2016-Feb-11 22:31N 33°40' W 118°07'0 0.1
2016-Feb-11 21:13N 33°40' W 118°07'0 0.1
2016-Feb-11 20:31N 33°40' W 118°07'0 0.1
2016-Feb-11 19:31N 33°40' W 118°07'0 0.1
2016-Feb-11 18:31N 33°40' W 118°07'0 0.1
2016-Feb-11 17:31N 33°40' W 118°07'0 0.1
2016-Feb-11 16:31N 33°40' W 118°07'0 0.0
2016-Feb-11 15:31N 33°40' W 118°07'0 0.0
2016-Feb-11 13:31N 33°40' W 118°07'0 0.0
2016-Feb-11 10:31N 33°40' W 118°07'0 0.0
2016-Feb-11 09:31N 33°40' W 118°07'0 0.1
2016-Feb-11 07:31N 33°40' W 118°07'0 0.1
2016-Feb-11 06:25N 33°40' W 118°07'0 0.0
2016-Feb-11 05:31N 33°40' W 118°07'0 0.0
2016-Feb-11 04:31N 33°40' W 118°07'0 0.1
2016-Feb-11 03:31N 33°40' W 118°07'0 0.0
2016-Feb-11 02:22N 33°40' W 118°07'0 0.0
2016-Feb-11 00:22N 33°40' W 118°07'0 0.0
2016-Feb-10 23:31N 33°40' W 118°07'0 0.1
2016-Feb-10 22:31N 33°40' W 118°07'0 0.1
2016-Feb-10 21:31N 33°40' W 118°07'0 0.0
2016-Feb-10 20:31N 33°40' W 118°07'0 0.0
2016-Feb-10 19:31N 33°40' W 118°07'0 0.1
2016-Feb-10 18:31N 33°40' W 118°07'0 0.0
2016-Feb-10 17:31N 33°40' W 118°07'0 0.0
2016-Feb-10 16:31N 33°40' W 118°07'0 0.0
2016-Feb-10 15:31N 33°40' W 118°07'0 0.0
2016-Feb-10 14:31N 33°40' W 118°07'0 0.1
2016-Feb-10 13:31N 33°40' W 118°07'0 0.0
2016-Feb-10 12:22N 33°40' W 118°07'0 0.0
2016-Feb-10 11:31N 33°40' W 118°07'0 0.0
2016-Feb-10 10:31N 33°40' W 118°07'0 0.1
2016-Feb-10 09:31N 33°40' W 118°07'0 0.1
2016-Feb-10 08:31N 33°40' W 118°07'0 0.1
2016-Feb-10 07:31N 33°40' W 118°07'0 0.1
2016-Feb-10 06:31N 33°40' W 118°07'0 0.1
2016-Feb-10 05:31N 33°40' W 118°07'0 0.1
2016-Feb-10 04:31N 33°40' W 118°07'0 0.0
2016-Feb-10 03:31N 33°40' W 118°07'0 0.0
2016-Feb-10 02:31N 33°40' W 118°07'0 0.1
2016-Feb-10 01:31N 33°40' W 118°07'0 0.0
2016-Feb-10 00:31N 33°40' W 118°07'0 0.1
2016-Feb-09 23:31N 33°40' W 118°07'0 0.1
2016-Feb-09 22:25N 33°40' W 118°07'0 0.1
2016-Feb-09 20:19N 33°40' W 118°07'0 0.0
2016-Feb-09 19:31N 33°40' W 118°07'0 0.0
2016-Feb-09 18:31N 33°40' W 118°07'0 0.0
2016-Feb-09 17:19N 33°40' W 118°07'0 0.0
2016-Feb-09 16:31N 33°40' W 118°07'0 0.0
2016-Feb-09 15:31N 33°40' W 118°07'0 0.0
2016-Feb-09 06:13N 33°40' W 118°07'0 0.1
2016-Feb-09 05:31N 33°40' W 118°07'0 0.1
2016-Feb-09 04:25N 33°40' W 118°07'0 0.0
2016-Feb-09 03:31N 33°40' W 118°07'0 0.0
2016-Feb-08 23:22N 33°40' W 118°07'0 0.0
2016-Feb-08 02:31N 33°40' W 118°07'0 0.0
2016-Feb-08 01:31N 33°40' W 118°07'0 0.0
2016-Feb-08 00:19N 33°40' W 118°07'0 0.0
2016-Feb-07 22:31N 33°40' W 118°07'0 0.0
2016-Feb-07 21:25N 33°40' W 118°07'0 0.0
2016-Feb-07 20:31N 33°40' W 118°07'0 0.0
2016-Feb-07 19:31N 33°40' W 118°07'0 0.0
2016-Feb-07 18:31N 33°40' W 118°07'0 0.0
2016-Feb-07 17:25N 33°40' W 118°07'0 0.0
2016-Feb-07 16:31N 33°40' W 118°07'0 0.0
2016-Feb-07 15:31N 33°40' W 118°07'0 0.0
2016-Feb-07 14:25N 33°40' W 118°07'0 0.0
2016-Feb-07 13:07N 33°40' W 118°07'0 0.0
2016-Feb-07 09:31N 33°40' W 118°07'0 0.0
2016-Feb-07 08:31N 33°40' W 118°07'0 0.0
2016-Feb-07 07:16N 33°40' W 118°07'0 0.0
2016-Feb-07 04:28N 33°40' W 118°07'0 0.0
2016-Feb-07 03:31N 33°40' W 118°07'0 0.1
2016-Feb-07 02:31N 33°40' W 118°07'0 0.0
2016-Feb-07 01:13N 33°40' W 118°07'0 0.0
2016-Feb-07 00:25N 33°40' W 118°07'0 0.0
2016-Feb-06 23:31N 33°40' W 118°07'0 0.0
2016-Feb-06 19:28N 33°40' W 118°07'0 0.0
2016-Feb-06 18:31N 33°40' W 118°07'0 0.0
2016-Feb-06 16:31N 33°40' W 118°07'0 0.0
2016-Feb-06 15:31N 33°40' W 118°07'0 0.1
2016-Feb-06 14:25N 33°40' W 118°07'0 0.0
2016-Feb-06 13:19N 33°40' W 118°07'9 0.8
2016-Feb-06 01:34N 33°31' W 118°08'1111.3
2016-Feb-06 00:34N 33°20' W 118°03'1111.1
2016-Feb-05 23:33N 33°09' W 117°59'1111.3
2016-Feb-05 22:34N 32°59' W 117°54'1211.5
2016-Feb-05 21:34N 32°48' W 117°50'1111.4
2016-Feb-05 20:34N 32°37' W 117°47'1111.1
2016-Feb-05 19:34N 32°26' W 117°42'6 5.7
2016-Feb-05 18:34N 32°21' W 117°40'8 7.2
2016-Feb-05 17:28N 32°13' W 117°37'  
Track history (hours):
 
Tides and Currents Weather Stations Pressure Air Temp Water Temp Dewpoint Dewpoint Depression Visibility Wind Speed Wind Dir Waves Ship Positions

Aqualoyalty

Last reported at 2016-Feb-14 07:34 UTC. Time now 2016-Feb-14 08:07 UTC.
Position N 33°42' W 118°33'.

Length 249 m; draft 8.3 m.

Type: Ship. MMSI: 636015177.

Date/timePositionNaut miles runAvg speedWind from/ knotsBaromVisibWave heightAir tempDewpointWater temp
2016-Feb-14 07:34N 33°42' W 118°33'8 7.8
2016-Feb-14 06:34N 33°49' W 118°32'6 5.7
2016-Feb-14 05:31N 33°54' W 118°27'0 0.1
2016-Feb-14 04:31N 33°54' W 118°27'0 0.0
2016-Feb-14 03:31N 33°54' W 118°27'0 0.0
2016-Feb-14 02:31N 33°54' W 118°27'0 0.0
2016-Feb-14 01:31N 33°54' W 118°27'0 0.0
2016-Feb-14 00:31N 33°54' W 118°27'0 0.0
2016-Feb-13 23:28N 33°54' W 118°27'0 0.1
2016-Feb-13 22:31N 33°54' W 118°27'0 0.0
2016-Feb-13 21:31N 33°54' W 118°27'0 0.0
2016-Feb-13 18:28N 33°54' W 118°27'0 0.1
2016-Feb-13 17:31N 33°54' W 118°27'0 0.1
2016-Feb-13 16:31N 33°54' W 118°27'0 0.0
2016-Feb-13 15:31N 33°54' W 118°27'0 0.0
2016-Feb-13 14:25N 33°54' W 118°27'0 0.0
2016-Feb-13 13:31N 33°54' W 118°27'0 0.0
2016-Feb-13 11:25N 33°54' W 118°27'0 0.0
2016-Feb-13 10:31N 33°54' W 118°27'0 0.1
2016-Feb-13 09:31N 33°54' W 118°27'0 0.0
2016-Feb-13 08:31N 33°54' W 118°27'0 0.0
2016-Feb-13 07:28N 33°54' W 118°27'0 0.0
2016-Feb-13 05:28N 33°54' W 118°27'0 0.1
2016-Feb-13 04:31N 33°54' W 118°27'0 0.0
2016-Feb-13 03:25N 33°54' W 118°27'0 0.0
2016-Feb-12 23:07N 33°54' W 118°27'0 0.1
2016-Feb-12 22:31N 33°54' W 118°27'0 0.0
2016-Feb-12 21:31N 33°54' W 118°27'0 0.0
2016-Feb-12 20:22N 33°54' W 118°27'0 0.1
2016-Feb-12 19:25N 33°54' W 118°27'0 0.0
2016-Feb-12 18:31N 33°54' W 118°27'0 0.1
2016-Feb-12 17:31N 33°54' W 118°27'0 0.2
2016-Feb-12 16:33N 33°54' W 118°27'3 2.7
2016-Feb-12 15:33N 33°53' W 118°30'3 2.0
2016-Feb-12 14:10N 33°50' W 118°30'4 6.5
2016-Feb-12 13:33N 33°46' W 118°30'9 9.1
2016-Feb-12 12:33N 33°39' W 118°23'9 8.9
2016-Feb-12 11:33N 33°38' W 118°12'5 4.6
2016-Feb-12 10:31N 33°40' W 118°07'0 0.1
2016-Feb-12 09:31N 33°40' W 118°07'0 0.1
2016-Feb-12 08:31N 33°40' W 118°07'0 0.1
2016-Feb-12 07:31N 33°40' W 118°07'0 0.0
2016-Feb-12 06:31N 33°40' W 118°07'0 0.0
2016-Feb-12 05:31N 33°40' W 118°07'0 0.0
2016-Feb-12 02:07N 33°40' W 118°07'0 0.0
2016-Feb-12 01:31N 33°40' W 118°07'0 0.0
2016-Feb-12 00:31N 33°40' W 118°07'0 0.0
2016-Feb-11 23:19N 33°40' W 118°07'0 0.1
2016-Feb-11 22:31N 33°40' W 118°07'0 0.1
2016-Feb-11 21:13N 33°40' W 118°07'0 0.1
2016-Feb-11 20:31N 33°40' W 118°07'0 0.1
2016-Feb-11 19:31N 33°40' W 118°07'0 0.1
2016-Feb-11 18:31N 33°40' W 118°07'0 0.1
2016-Feb-11 17:31N 33°40' W 118°07'0 0.1
2016-Feb-11 16:31N 33°40' W 118°07'0 0.0
2016-Feb-11 15:31N 33°40' W 118°07'0 0.0
2016-Feb-11 13:31N 33°40' W 118°07'0 0.0
2016-Feb-11 10:31N 33°40' W 118°07'0 0.0
2016-Feb-11 09:31N 33°40' W 118°07'0 0.1
2016-Feb-11 07:31N 33°40' W 118°07'0 0.1
2016-Feb-11 06:25N 33°40' W 118°07'0 0.0
2016-Feb-11 05:31N 33°40' W 118°07'0 0.0
2016-Feb-11 04:31N 33°40' W 118°07'0 0.1
2016-Feb-11 03:31N 33°40' W 118°07'0 0.0
2016-Feb-11 02:22N 33°40' W 118°07'0 0.0
2016-Feb-11 00:22N 33°40' W 118°07'0 0.0
2016-Feb-10 23:31N 33°40' W 118°07'0 0.1
2016-Feb-10 22:31N 33°40' W 118°07'0 0.1
2016-Feb-10 21:31N 33°40' W 118°07'0 0.0
2016-Feb-10 20:31N 33°40' W 118°07'0 0.0
2016-Feb-10 19:31N 33°40' W 118°07'0 0.1
2016-Feb-10 18:31N 33°40' W 118°07'0 0.0
2016-Feb-10 17:31N 33°40' W 118°07'0 0.0
2016-Feb-10 16:31N 33°40' W 118°07'0 0.0
2016-Feb-10 15:31N 33°40' W 118°07'0 0.0
2016-Feb-10 14:31N 33°40' W 118°07'0 0.1
2016-Feb-10 13:31N 33°40' W 118°07'0 0.0
2016-Feb-10 12:22N 33°40' W 118°07'0 0.0
2016-Feb-10 11:31N 33°40' W 118°07'0 0.0
2016-Feb-10 10:31N 33°40' W 118°07'0 0.1
2016-Feb-10 09:31N 33°40' W 118°07'0 0.1
2016-Feb-10 08:31N 33°40' W 118°07'0 0.1
2016-Feb-10 07:31N 33°40' W 118°07'0 0.1
2016-Feb-10 06:31N 33°40' W 118°07'0 0.1
2016-Feb-10 05:31N 33°40' W 118°07'0 0.1
2016-Feb-10 04:31N 33°40' W 118°07'0 0.0
2016-Feb-10 03:31N 33°40' W 118°07'0 0.0
2016-Feb-10 02:31N 33°40' W 118°07'0 0.1
2016-Feb-10 01:31N 33°40' W 118°07'0 0.0
2016-Feb-10 00:31N 33°40' W 118°07'0 0.1
2016-Feb-09 23:31N 33°40' W 118°07'0 0.1
2016-Feb-09 22:25N 33°40' W 118°07'0 0.1
2016-Feb-09 20:19N 33°40' W 118°07'0 0.0
2016-Feb-09 19:31N 33°40' W 118°07'0 0.0
2016-Feb-09 18:31N 33°40' W 118°07'0 0.0
2016-Feb-09 17:19N 33°40' W 118°07'0 0.0
2016-Feb-09 16:31N 33°40' W 118°07'0 0.0
2016-Feb-09 15:31N 33°40' W 118°07'0 0.0
2016-Feb-09 06:13N 33°40' W 118°07'0 0.1
2016-Feb-09 05:31N 33°40' W 118°07'0 0.1
2016-Feb-09 04:25N 33°40' W 118°07'0 0.0
2016-Feb-09 03:31N 33°40' W 118°07'0 0.0
2016-Feb-08 23:22N 33°40' W 118°07'0 0.0
2016-Feb-08 02:31N 33°40' W 118°07'0 0.0
2016-Feb-08 01:31N 33°40' W 118°07'0 0.0
2016-Feb-08 00:19N 33°40' W 118°07'0 0.0
2016-Feb-07 22:31N 33°40' W 118°07'0 0.0
2016-Feb-07 21:25N 33°40' W 118°07'0 0.0
2016-Feb-07 20:31N 33°40' W 118°07'0 0.0
2016-Feb-07 19:31N 33°40' W 118°07'0 0.0
2016-Feb-07 18:31N 33°40' W 118°07'0 0.0
2016-Feb-07 17:25N 33°40' W 118°07'0 0.0
2016-Feb-07 16:31N 33°40' W 118°07'0 0.0
2016-Feb-07 15:31N 33°40' W 118°07'0 0.0
2016-Feb-07 14:25N 33°40' W 118°07'0 0.0
2016-Feb-07 13:07N 33°40' W 118°07'0 0.0
2016-Feb-07 09:31N 33°40' W 118°07'0 0.0
2016-Feb-07 08:31N 33°40' W 118°07'0 0.0
2016-Feb-07 07:16N 33°40' W 118°07'0 0.0
2016-Feb-07 04:28N 33°40' W 118°07'0 0.0
2016-Feb-07 03:31N 33°40' W 118°07'0 0.1
2016-Feb-07 02:31N 33°40' W 118°07'0 0.0
2016-Feb-07 01:13N 33°40' W 118°07'0 0.0
2016-Feb-07 00:25N 33°40' W 118°07'0 0.0
2016-Feb-06 23:31N 33°40' W 118°07'0 0.0
2016-Feb-06 19:28N 33°40' W 118°07'0 0.0
2016-Feb-06 18:31N 33°40' W 118°07'0 0.0
2016-Feb-06 16:31N 33°40' W 118°07'0 0.0
2016-Feb-06 15:31N 33°40' W 118°07'0 0.1
2016-Feb-06 14:25N 33°40' W 118°07'0 0.0
2016-Feb-06 13:19N 33°40' W 118°07'9 0.8
2016-Feb-06 01:34N 33°31' W 118°08'1111.3
2016-Feb-06 00:34N 33°20' W 118°03'1111.1
2016-Feb-05 23:33N 33°09' W 117°59'1111.3
2016-Feb-05 22:34N 32°59' W 117°54'1211.5
2016-Feb-05 21:34N 32°48' W 117°50'1111.4
2016-Feb-05 20:34N 32°37' W 117°47'1111.1
2016-Feb-05 19:34N 32°26' W 117°42'6 5.7
2016-Feb-05 18:34N 32°21' W 117°40'8 7.2
2016-Feb-05 17:28N 32°13' W 117°37'  

Dump ship's entire track history